Dades meteomassalio
Diari Summary for Octubre 15, 2017 Units:  Metric    English   Both
« Previous Day
Next Day »
Diari Semanal Mensual Anual Personalitzat
  Maxima: Minima: Mijana:
Temperatura: -17.8 °C -13.4 °C -9.1 °C
Rosada: -17.8 °C -14.1 °C -11.3 °C
Humitat: Humidity % 52 % 78 %
Velocitat del vent: 0 km/h 0 km/h 6 km/h
Racha vent: 0 km/h - -
Vent:- - SSE
Pressio: 0 hPa 34726.8 hPa -
Pluja: 7.62 mm    
Historical Graphs
 
 
Tabular Data for Octubre 15, 2017
Time Temperature Dew Point Pressure Wind Wind Speed Wind Gust Humidity Rainfall Rate (Hourly) solar Conditions
-17.8 °C -17.8 °C 0 hPa Calm     Humidity % 0 mm SolarRadiationWatts/m^2 W/m2 Conditions
00:01 -10.1 °C -11.4 °C 34797.9 hPa Calm     85 % 0 mm 0.0 W/m2 CLR
00:06 -10.4 °C -11.7 °C 34808.1 hPa Calm     85 % 0 mm 0.0 W/m2 CLR
00:07 -10.4 °C -11.7 °C 34808.1 hPa Calm     85 % 0 mm 0.0 W/m2 CLR
00:12 -10.4 °C -11.7 °C 34808.1 hPa Calm     85 % 0 mm 0.0 W/m2 CLR
00:17 -10.4 °C -11.6 °C 34808.1 hPa Calm     86 % 0 mm 0.0 W/m2 CLR
00:22 -10.7 °C -11.9 °C 34808.1 hPa Calm     86 % 0 mm 0.0 W/m2 CLR
00:27 -10.7 °C -11.9 °C 34808.1 hPa Calm     86 % 0 mm 0.0 W/m2 CLR
00:32 -10.7 °C -11.9 °C 34808.1 hPa Calm     86 % 0 mm 0.0 W/m2 CLR
00:37 -11 °C -12.3 °C 34808.1 hPa Calm     86 % 0 mm 0.0 W/m2 CLR
00:42 -11 °C -12.3 °C 34808.1 hPa Calm     86 % 0 mm 0.0 W/m2 CLR
00:47 -11 °C -12.2 °C 34808.1 hPa Calm     87 % 0 mm 0.0 W/m2 CLR
00:53 -11 °C -12.2 °C 34808.1 hPa Calm     87 % 0 mm 0.0 W/m2 CLR
00:54 -11 °C -12.2 °C 34808.1 hPa Calm     87 % 0 mm 0.0 W/m2 CLR
00:59 -11 °C -12.2 °C 34808.1 hPa Calm     87 % 0 mm 0.0 W/m2 CLR
01:04 -11.3 °C -12.4 °C 34808.1 hPa Calm     87 % 0 mm 0.0 W/m2 CLR
01:09 -11.3 °C -12.4 °C 34808.1 hPa Calm     87 % 0 mm 0.0 W/m2 CLR
01:14 -11.3 °C -12.4 °C 34808.1 hPa Calm     88 % 0 mm 0.0 W/m2 CLR
01:19 -11.3 °C -12.4 °C 34808.1 hPa Calm     88 % 0 mm 0.0 W/m2 CLR
01:24 -11.3 °C -12.4 °C 34808.1 hPa Calm     88 % 0 mm 0.0 W/m2 CLR
01:29 -11.3 °C -12.3 °C 34808.1 hPa Calm     89 % 0 mm 0.0 W/m2 CLR
01:34 -11.3 °C -12.3 °C 34808.1 hPa Calm     89 % 0 mm 0.0 W/m2 CLR
01:39 -11.6 °C -12.7 °C 34808.1 hPa Calm     88 % 0 mm 0.0 W/m2 CLR
01:44 -11.6 °C -12.6 °C 34808.1 hPa Calm     89 % 0 mm 0.0 W/m2 CLR
01:49 -11.6 °C -12.6 °C 34808.1 hPa Calm     89 % 0 mm 0.0 W/m2 CLR
01:54 -11.6 °C -12.6 °C 34808.1 hPa Calm     89 % 0 mm 0.0 W/m2 CLR
01:59 -11.6 °C -12.7 °C 34808.1 hPa Calm     88 % 0 mm 0.0 W/m2 CLR
02:04 -11.6 °C -12.6 °C 34808.1 hPa Calm     89 % 0 mm 0.0 W/m2 CLR
02:09 -11.6 °C -12.6 °C 34808.1 hPa Calm     89 % 0 mm 0.0 W/m2 CLR
02:14 -11.6 °C -12.6 °C 34808.1 hPa Calm     89 % 0 mm 0.0 W/m2 CLR
02:19 -11.6 °C -12.6 °C 34808.1 hPa Calm     89 % 0 mm 0.0 W/m2 CLR
02:24 -11.6 °C -12.6 °C 34808.1 hPa Calm     89 % 0 mm 0.0 W/m2 CLR
02:29 -11.6 °C -12.4 °C 34808.1 hPa Calm     90 % 0 mm 0.0 W/m2 CLR
02:34 -11.6 °C -12.4 °C 34808.1 hPa Calm     90 % 0 mm 0.0 W/m2 CLR
02:39 -11.6 °C -12.4 °C 34808.1 hPa Calm     90 % 0 mm 0.0 W/m2 CLR
02:44 -11.9 °C -12.8 °C 34808.1 hPa Calm     90 % 0 mm 0.0 W/m2 CLR
02:49 -11.9 °C -12.8 °C 34808.1 hPa Calm     90 % 0 mm 0.0 W/m2 CLR
02:54 -11.9 °C -12.8 °C 34808.1 hPa Calm     90 % 0 mm 0.0 W/m2 CLR
02:59 -11.9 °C -12.9 °C 34808.1 hPa Calm     89 % 0 mm 0.0 W/m2 CLR
03:04 -11.9 °C -12.9 °C 34808.1 hPa Calm     89 % 0 mm 0.0 W/m2 CLR
03:09 -11.9 °C -12.8 °C 34808.1 hPa Calm     90 % 0 mm 0.0 W/m2 CLR
03:14 -11.9 °C -12.8 °C 34808.1 hPa Calm     90 % 0 mm 0.0 W/m2 CLR
03:19 -11.9 °C -12.8 °C 34808.1 hPa Calm     90 % 0 mm 0.0 W/m2 CLR
03:24 -11.9 °C -12.8 °C 34808.1 hPa Calm     90 % 0 mm 0.0 W/m2 CLR
03:29 -11.9 °C -12.8 °C 34808.1 hPa Calm     90 % 0 mm 0.0 W/m2 CLR
03:34 -11.9 °C -12.8 °C 34797.9 hPa Calm     90 % 0 mm 0.0 W/m2 CLR
03:39 -12.2 °C -13.1 °C 34808.1 hPa Calm     90 % 0 mm 0.0 W/m2 CLR
03:44 -12.2 °C -13.1 °C 34808.1 hPa Calm     90 % 0 mm 0.0 W/m2 CLR
03:49 -12.2 °C -13.1 °C 34797.9 hPa Calm     90 % 0 mm 0.0 W/m2 CLR
03:54 -12.2 °C -13.1 °C 34797.9 hPa Calm     90 % 0 mm 0.0 W/m2 CLR
03:59 -12.2 °C -13.1 °C 34797.9 hPa Calm     90 % 0 mm 0.0 W/m2 CLR
04:04 -12.2 °C -13.1 °C 34797.9 hPa Calm     90 % 0 mm 0.0 W/m2 CLR
04:09 -12.2 °C -13.1 °C 34797.9 hPa Calm     90 % 0 mm 0.0 W/m2 CLR
04:14 -12.2 °C -13 °C 34797.9 hPa Calm     91 % 0 mm 0.0 W/m2 CLR
04:19 -12.2 °C -13 °C 34797.9 hPa Calm     91 % 0 mm 0.0 W/m2 CLR
04:20 -12.2 °C -13 °C 34797.9 hPa Calm     91 % 0 mm 0.0 W/m2 CLR
04:25 -12.2 °C -13 °C 34797.9 hPa Calm     91 % 0 mm 0.0 W/m2 CLR
04:30 -12.6 °C -13.3 °C 34797.9 hPa Calm     91 % 0 mm 0.0 W/m2 CLR
04:35 -12.6 °C -13.3 °C 34797.9 hPa Calm     91 % 0 mm 0.0 W/m2 CLR
04:40 -12.6 °C -13.3 °C 34797.9 hPa Calm     91 % 0 mm 0.0 W/m2 CLR
04:45 -12.2 °C -13.1 °C 34808.1 hPa Calm     90 % 0 mm 0.0 W/m2 CLR
04:50 -12.2 °C -13 °C 34808.1 hPa Calm     91 % 0 mm 0.0 W/m2 CLR
04:55 -12.2 °C -13 °C 34808.1 hPa Calm     91 % 0 mm 0.0 W/m2 CLR
05:00 -12.2 °C -13 °C 34808.1 hPa Calm     91 % 0 mm 0.0 W/m2 CLR
05:05 -12.6 °C -13.3 °C 34808.1 hPa Calm     91 % 0 mm 0.0 W/m2 CLR
05:10 -12.6 °C -13.3 °C 34808.1 hPa Calm     91 % 0 mm 0.0 W/m2 CLR
05:15 -12.6 °C -13.3 °C 34808.1 hPa Calm     91 % 0 mm 0.0 W/m2 CLR
05:20 -12.6 °C -13.3 °C 34808.1 hPa Calm     91 % 0 mm 0.0 W/m2 CLR
05:25 -12.6 °C -13.3 °C 34808.1 hPa Calm     91 % 0 mm 0.0 W/m2 CLR
05:30 -12.6 °C -13.3 °C 34808.1 hPa Calm     91 % 0 mm 0.0 W/m2 CLR
05:35 -12.6 °C -13.3 °C 34818.2 hPa Calm     91 % 0 mm 0.0 W/m2 CLR
05:40 -12.8 °C -13.6 °C 34818.2 hPa Calm     91 % 0 mm 0.0 W/m2 CLR
05:45 -12.8 °C -13.6 °C 34808.1 hPa Calm     91 % 0 mm 0.0 W/m2 CLR
05:50 -12.8 °C -13.6 °C 34808.1 hPa Calm     91 % 0 mm 0.0 W/m2 CLR
05:55 -12.8 °C -13.6 °C 34808.1 hPa Calm     91 % 0 mm 0.0 W/m2 CLR
06:00 -12.8 °C -13.6 °C 34818.2 hPa Calm     91 % 0 mm 0.0 W/m2 CLR
06:06 -12.8 °C -13.6 °C 34818.2 hPa Calm     91 % 0 mm 0.0 W/m2 CLR
06:11 -12.8 °C -13.6 °C 34818.2 hPa Calm     91 % 0 mm 0.0 W/m2 CLR
06:15 -12.8 °C -13.6 °C 34818.2 hPa Calm     91 % 0 mm 0.0 W/m2 CLR
06:16 -12.8 °C -13.6 °C 34818.2 hPa Calm     91 % 0 mm 0.0 W/m2 CLR
06:21 -12.8 °C -13.6 °C 34818.2 hPa Calm     91 % 0 mm 0.0 W/m2 CLR
06:26 -12.8 °C -13.6 °C 34818.2 hPa Calm     91 % 0 mm 0.0 W/m2 CLR
06:31 -12.8 °C -13.6 °C 34818.2 hPa Calm     91 % 0 mm 0.0 W/m2 CLR
06:36 -13.2 °C -13.8 °C 34818.2 hPa Calm     92 % 0 mm 0.0 W/m2 CLR
06:41 -13.2 °C -13.8 °C 34818.2 hPa Calm     92 % 0 mm 0.0 W/m2 CLR
06:46 -13.2 °C -13.9 °C 34818.2 hPa Calm     91 % 0 mm 0.0 W/m2 CLR
06:51 -13.2 °C -13.8 °C 34818.2 hPa Calm     92 % 0 mm 0.0 W/m2 CLR
06:56 -13.2 °C -13.9 °C 34831.8 hPa Calm     91 % 0 mm 0.0 W/m2 CLR
07:01 -13.2 °C -13.9 °C 34831.8 hPa Calm     91 % 0 mm 0.0 W/m2 CLR
07:06 -13.2 °C -13.8 °C 34831.8 hPa Calm     92 % 0 mm 0.0 W/m2 CLR
07:11 -13.2 °C -13.8 °C 34831.8 hPa Calm     92 % 0 mm 0.0 W/m2 CLR
07:16 -13.2 °C -13.8 °C 34831.8 hPa Calm     92 % 0 mm 0.0 W/m2 CLR
07:21 -13.2 °C -13.8 °C 34831.8 hPa Calm     92 % 0 mm 0.0 W/m2 CLR
07:26 -13.2 °C -13.8 °C 34831.8 hPa Calm     92 % 0 mm 0.0 W/m2 CLR
07:31 -13.2 °C -13.8 °C 34831.8 hPa Calm     92 % 0 mm 0.0 W/m2 CLR
07:36 -13.2 °C -13.8 °C 34831.8 hPa Calm     92 % 0 mm 0.0 W/m2 CLR
07:41 -13.2 °C -13.8 °C 34831.8 hPa Calm     92 % 0 mm 0.0 W/m2 CLR
07:46 -13.4 °C -14.1 °C 34831.8 hPa Calm     92 % 0 mm 0.0 W/m2 CLR
07:51 -13.4 °C -14.1 °C 34841.9 hPa Calm     92 % 0 mm 0.0 W/m2 CLR
07:56 -13.4 °C -14.1 °C 34841.9 hPa Calm     92 % 0 mm 0.0 W/m2 CLR
08:02 -13.4 °C -14.1 °C 34841.9 hPa Calm     92 % 0 mm 0.0 W/m2 OVC
08:07 -13.2 °C -13.8 °C 34841.9 hPa Calm     92 % 0 mm 0.0 W/m2 OVC
08:12 -13.2 °C -13.8 °C 34841.9 hPa Calm     92 % 0 mm 0.0 W/m2 OVC
08:17 -13.2 °C -13.8 °C 34841.9 hPa Calm     92 % 0 mm 7.0 W/m2 OVC
08:22 -13.2 °C -13.8 °C 34852.1 hPa Calm     92 % 0 mm 9.0 W/m2 BKN
08:27 -12.8 °C -13.5 °C 34852.1 hPa Calm     92 % 0 mm 12.0 W/m2 BKN
08:32 -12.8 °C -13.5 °C 34852.1 hPa Calm     92 % 7.62 mm 18.0 W/m2 RA
08:37 -12.8 °C -13.5 °C 34852.1 hPa Calm     92 % 7.62 mm 25.0 W/m2 BKN
08:42 -12.8 °C -13.5 °C 34852.1 hPa Calm     92 % 7.62 mm 26.0 W/m2 BKN
08:47 -12.6 °C -13.1 °C 34852.1 hPa Calm     93 % 7.62 mm 32.0 W/m2 BKN
08:52 -12.6 °C -13.1 °C 34852.1 hPa Calm     93 % 7.62 mm 39.0 W/m2 BKN
08:57 -12.2 °C -12.8 °C 34852.1 hPa Calm     93 % 7.62 mm 46.0 W/m2 BKN
09:02 -12.2 °C -12.8 °C 34852.1 hPa Calm     93 % 7.62 mm 53.0 W/m2 SCT
09:07 -11.9 °C -12.6 °C 34852.1 hPa Calm     93 % 7.62 mm 54.0 W/m2 SCT
09:12 -11.9 °C -12.6 °C 34852.1 hPa Calm     93 % 7.62 mm 62.0 W/m2 SCT
09:17 -11.6 °C -12.2 °C 34852.1 hPa Calm     93 % 7.62 mm 65.0 W/m2 SCT
09:22 -11.6 °C -12.2 °C 34865.6 hPa Calm     93 % 7.62 mm 76.0 W/m2 FEW
09:27 -11.6 °C -12.2 °C 34865.6 hPa Calm     93 % 7.62 mm 81.0 W/m2 FEW
09:32 -11.3 °C -11.9 °C 34865.6 hPa Calm     93 % 0 mm 86.0 W/m2 FEW
09:37 -11 °C -11.6 °C 34865.6 hPa Calm     93 % 0 mm 84.0 W/m2 FEW
09:42 -11 °C -11.6 °C 34865.6 hPa Calm     93 % 0 mm 93.0 W/m2 FEW
09:47 -10.7 °C -11.3 °C 34865.6 hPa Calm     93 % 0 mm 86.0 W/m2 CLR
09:52 -10.7 °C -11.3 °C 34865.6 hPa Calm     93 % 0 mm 102.0 W/m2 CLR
09:57 -10.7 °C -11.3 °C 34865.6 hPa Calm     93 % 0 mm 116.0 W/m2 CLR
10:02 -10.4 °C -10.9 °C 34865.6 hPa Calm     94 % 0 mm 113.0 W/m2 CLR
10:07 -10.4 °C -10.9 °C 34865.6 hPa Calm     94 % 0 mm 132.0 W/m2 CLR
10:12 -10.4 °C -10.9 °C 34865.6 hPa Calm     94 % 0 mm 125.0 W/m2 CLR
10:17 -10.4 °C -10.9 °C 34865.6 hPa Calm     94 % 0 mm 128.0 W/m2 CLR
10:22 -10.1 °C -10.6 °C 34875.8 hPa Calm     94 % 0 mm 132.0 W/m2 CLR
10:27 -10.1 °C -10.6 °C 34875.8 hPa Calm     94 % 0 mm 172.0 W/m2 CLR
10:32 -9.8 °C -10.3 °C 34865.6 hPa Calm     94 % 0 mm 162.0 W/m2 CLR
10:37 -9.8 °C -10.3 °C 34875.8 hPa Calm     94 % 0 mm 163.0 W/m2 CLR
10:42 -9.4 °C -9.9 °C 34875.8 hPa Calm     94 % 0 mm 162.0 W/m2 CLR
10:47 -9.4 °C -9.9 °C 34875.8 hPa Calm     94 % 0 mm 220.0 W/m2 CLR
10:52 -9.1 °C -9.8 °C 34875.8 hPa Calm     93 % 0 mm 244.0 W/m2 CLR
10:57 -9.1 °C -9.8 °C 34865.6 hPa Calm     93 % 0 mm 237.0 W/m2 CLR
11:02 -8.8 °C -9.4 °C 34875.8 hPa Calm     93 % 0 mm 253.0 W/m2 CLR
11:07 -8.5 °C -9.1 °C 34875.8 hPa Calm     93 % 0 mm 283.0 W/m2 CLR
11:12 -8.5 °C -9.3 °C 34875.8 hPa Calm     92 % 0 mm 374.0 W/m2 CLR
11:17 -8.5 °C -9.3 °C 34875.8 hPa Calm     92 % 0 mm 510.0 W/m2 CLR
11:22 -8.2 °C -8.9 °C 34875.8 hPa Calm     92 % 0 mm 469.0 W/m2 CLR
11:27 -8.2 °C -9.1 °C 34875.8 hPa Calm     90 % 0 mm 499.0 W/m2 CLR
11:32 -8.2 °C -9.2 °C 34865.6 hPa Calm     89 % 0 mm 473.0 W/m2 CLR
11:37 -7.9 °C -9.1 °C 34865.6 hPa Calm     87 % 0 mm 485.0 W/m2 CLR
11:42 -7.9 °C -9.3 °C 34865.6 hPa Calm     85 % 0 mm 494.0 W/m2 CLR
11:47 -7.6 °C -9 °C 34865.6 hPa Calm     85 % 0 mm 503.0 W/m2 CLR
11:52 -7.6 °C -9.1 °C 34865.6 hPa Calm     84 % 0 mm 512.0 W/m2 CLR
11:57 -7.3 °C -8.9 °C 34852.1 hPa Calm     83 % 0 mm 522.0 W/m2 CLR
12:02 -7.3 °C -9.1 °C 34852.1 hPa Calm     81 % 0 mm 531.0 W/m2 CLR
12:07 -7 °C -8.8 °C 34852.1 hPa Calm     81 % 0 mm 538.0 W/m2 CLR
12:12 -7 °C -8.9 °C 34852.1 hPa Calm     80 % 0 mm 547.0 W/m2 CLR
12:17 -7 °C -9.2 °C 34852.1 hPa Calm     78 % 0 mm 555.0 W/m2 CLR
12:22 -6.7 °C -9 °C 34852.1 hPa Calm     77 % 0 mm 561.0 W/m2 CLR
12:27 -6.3 °C -8.8 °C 34841.9 hPa Calm     76 % 0 mm 568.0 W/m2 CLR
12:32 -6.1 °C -8.6 °C 34841.9 hPa NNW 2.6 km/h   75 % 0 mm 571.0 W/m2 CLR
12:37 -6.3 °C -9 °C 34841.9 hPa Calm     74 % 0 mm 577.0 W/m2 CLR
12:42 -6.1 °C -8.8 °C 34841.9 hPa Calm     73 % 0 mm 584.0 W/m2 CLR
12:47 -5.7 °C -8.6 °C 34841.9 hPa Calm     73 % 0 mm 591.0 W/m2 CLR
12:52 -5.7 °C -8.7 °C 34841.9 hPa North 9 km/h   72 % 0 mm 596.0 W/m2 CLR
12:57 -5.4 °C -8.4 °C 34831.8 hPa Calm     72 % 0 mm 601.0 W/m2 CLR
13:02 -5.7 °C -8.9 °C 34831.8 hPa Calm     70 % 0 mm 605.0 W/m2 CLR
13:07 -5.4 °C -8.6 °C 34831.8 hPa Calm     70 % 0 mm 606.0 W/m2 CLR
13:12 -5.4 °C -8.7 °C 34831.8 hPa Calm     69 % 0 mm 608.0 W/m2 CLR
13:17 -5.4 °C -8.7 °C 34831.8 hPa North 11.9 km/h 11.9 km/h 69 % 0 mm 612.0 W/m2 CLR
13:22 -5.1 °C -8.6 °C 34818.2 hPa NW 20.9 km/h 20.9 km/h 68 % 0 mm 613.0 W/m2 CLR
13:27 -5.1 °C -8.7 °C 34818.2 hPa NW 17.9 km/h 17.9 km/h 67 % 0 mm 615.0 W/m2 CLR
13:32 -5.1 °C -8.7 °C 34818.2 hPa Calm   1 km/h 67 % 0 mm 619.0 W/m2 CLR
13:37 -4.8 °C -8.6 °C 34808.1 hPa NW 15 km/h 15 km/h 66 % 0 mm 619.0 W/m2 CLR
13:42 -4.8 °C -8.7 °C 34808.1 hPa Calm     65 % 0 mm 617.0 W/m2 CLR
13:47 -4.8 °C -8.7 °C 34808.1 hPa NNW 20.9 km/h 20.9 km/h 65 % 0 mm 619.0 W/m2 CLR
13:52 -4.5 °C -8.5 °C 34808.1 hPa WNW 17.9 km/h 17.9 km/h 64 % 0 mm 619.0 W/m2 CLR
13:57 -4.5 °C -8.5 °C 34797.9 hPa NNW 23.8 km/h 23.8 km/h 64 % 0 mm 619.0 W/m2 CLR
14:02 -4.5 °C -8.7 °C 34797.9 hPa NNW 23.3 km/h 23.3 km/h 63 % 0 mm 617.0 W/m2 CLR
14:07 -4.2 °C -8.5 °C 34797.9 hPa NW 15 km/h 15 km/h 62 % 0 mm 613.0 W/m2 CLR
14:12 -4.2 °C -8.7 °C 34784.4 hPa WNW 6 km/h   61 % 0 mm 613.0 W/m2 CLR
14:18 -4.2 °C -8.8 °C 34784.4 hPa NW 29.8 km/h 29.8 km/h 60 % 0 mm 612.0 W/m2 CLR
14:23 -4.2 °C -9.1 °C 34784.4 hPa WNW 20.9 km/h 20.9 km/h 58 % 0 mm 608.0 W/m2 CLR
14:28 -3.9 °C -8.9 °C 34784.4 hPa NW 10.3 km/h 10.3 km/h 57 % 0 mm 605.0 W/m2 CLR
14:33 -3.9 °C -9.1 °C 34774.2 hPa NW 31.1 km/h 31.1 km/h 56 % 0 mm 601.0 W/m2 CLR
14:38 -3.6 °C -8.8 °C 34774.2 hPa NW 20.9 km/h 20.9 km/h 56 % 0 mm 599.0 W/m2 CLR
14:43 -3.6 °C -9 °C 34774.2 hPa Calm     55 % 0 mm 592.0 W/m2 CLR
14:48 -3.6 °C -9 °C 34774.2 hPa NW 15 km/h 15 km/h 55 % 0 mm 591.0 W/m2 CLR
14:53 -3.6 °C -9.1 °C 34774.2 hPa NW 20.9 km/h 20.9 km/h 54 % 0 mm 584.0 W/m2 CLR
14:58 -3.6 °C -9.3 °C 34774.2 hPa NW 11.9 km/h 11.9 km/h 53 % 0 mm 578.0 W/m2 CLR
15:03 -3.6 °C -9.3 °C 34760.7 hPa NW 20.9 km/h 20.9 km/h 53 % 0 mm 573.0 W/m2 CLR
15:08 -3.6 °C -9.3 °C 34760.7 hPa WNW 23.3 km/h 23.5 km/h 53 % 0 mm 568.0 W/m2 CLR
15:13 -3.6 °C -9.3 °C 34760.7 hPa NNW 20.8 km/h 20.8 km/h 53 % 0 mm 559.0 W/m2 CLR
15:18 -3.3 °C -9.2 °C 34760.7 hPa NNW 32.8 km/h 32.8 km/h 52 % 0 mm 548.0 W/m2 CLR
15:23 -3.3 °C -9 °C 34760.7 hPa NNW 20.9 km/h 20.9 km/h 53 % 0 mm 543.0 W/m2 CLR
15:28 -3.6 °C -9.3 °C 34750.5 hPa NW 25.9 km/h 25.9 km/h 53 % 0 mm 538.0 W/m2 CLR
15:33 -3.6 °C -9.5 °C 34750.5 hPa NNW 29.8 km/h 29.8 km/h 52 % 0 mm 529.0 W/m2 CLR
15:38 -3.3 °C -9.2 °C 34750.5 hPa NNW 15 km/h 15 km/h 52 % 0 mm 519.0 W/m2 CLR
15:43 -3.3 °C -9 °C 34750.5 hPa North 12.9 km/h 12.9 km/h 53 % 0 mm 510.0 W/m2 CLR
15:48 -3.3 °C -9 °C 34750.5 hPa NW 26.9 km/h 26.9 km/h 53 % 0 mm 499.0 W/m2 CLR
15:53 -2.9 °C -8.7 °C 34750.5 hPa NNW 25.9 km/h 25.9 km/h 53 % 0 mm 490.0 W/m2 CLR
15:58 -2.9 °C -8.6 °C 34750.5 hPa NE 35.7 km/h 35.7 km/h 54 % 0 mm 482.0 W/m2 CLR
16:03 -2.9 °C -8.7 °C 34740.4 hPa NE 23.8 km/h 23.8 km/h 53 % 0 mm 469.0 W/m2 CLR
16:08 -3.3 °C -9 °C 34740.4 hPa Calm     53 % 0 mm 461.0 W/m2 CLR
16:13 -2.9 °C -8.6 °C 34740.4 hPa NE 29.8 km/h 29.8 km/h 54 % 0 mm 454.0 W/m2 CLR
16:18 -2.9 °C -8.4 °C 34740.4 hPa NE 20.9 km/h 20.9 km/h 55 % 0 mm 441.0 W/m2 CLR
16:23 -3.3 °C -8.7 °C 34740.4 hPa NE 26.9 km/h 26.9 km/h 55 % 0 mm 429.0 W/m2 CLR
16:28 -3.3 °C -8.7 °C 34740.4 hPa NE 26.9 km/h 26.9 km/h 55 % 0 mm 417.0 W/m2 CLR
16:33 -3.3 °C -8.5 °C 34740.4 hPa NE 26.9 km/h 26.9 km/h 56 % 0 mm 404.0 W/m2 CLR
16:38 -3.3 °C -8.5 °C 34740.4 hPa NNE 20.9 km/h 20.9 km/h 56 % 0 mm 396.0 W/m2 CLR
16:43 -3.6 °C -8.7 °C 34740.4 hPa NNE 9 km/h 9 km/h 57 % 0 mm 383.0 W/m2 CLR
16:48 -3.6 °C -8.7 °C 34726.8 hPa NNE 20.9 km/h 20.9 km/h 57 % 0 mm 369.0 W/m2 CLR
16:53 -3.6 °C -8.7 °C 34726.8 hPa NE 20.9 km/h 20.9 km/h 57 % 0 mm 359.0 W/m2 CLR
16:58 -3.6 °C -8.7 °C 34726.8 hPa NE 26.9 km/h 26.9 km/h 57 % 0 mm 345.0 W/m2 CLR
17:03 -3.6 °C -8.7 °C 34740.4 hPa NNE 26.9 km/h 26.9 km/h 57 % 0 mm 330.0 W/m2 CLR
17:08 -3.6 °C -8.5 °C 34726.8 hPa NNE 20.9 km/h 20.9 km/h 58 % 0 mm 316.0 W/m2 CLR
17:13 -3.9 °C -8.7 °C 34740.4 hPa North 29.8 km/h 29.8 km/h 59 % 0 mm 304.0 W/m2 CLR
17:18 -3.9 °C -8.7 °C 34726.8 hPa NE 29.8 km/h 29.8 km/h 59 % 0 mm 290.0 W/m2 CLR
17:23 -3.9 °C -8.5 °C 34726.8 hPa NNW 23.8 km/h 23.8 km/h 60 % 0 mm 278.0 W/m2 CLR
17:28 -4.2 °C -8.8 °C 34726.8 hPa NE 29.8 km/h 29.8 km/h 60 % 0 mm 262.0 W/m2 CLR
17:33 -4.2 °C -8.8 °C 34740.4 hPa NNE 29.8 km/h 29.8 km/h 60 % 0 mm 248.0 W/m2 CLR
17:38 -4.2 °C -8.8 °C 34740.4 hPa NE 20.8 km/h 20.8 km/h 60 % 0 mm 234.0 W/m2 CLR
17:39 -4.2 °C -8.8 °C 34726.8 hPa NNE 17.9 km/h 17.9 km/h 60 % 0 mm 230.0 W/m2 CLR
17:44 -4.2 °C -8.8 °C 34740.4 hPa NE 29.8 km/h 29.8 km/h 60 % 0 mm 213.0 W/m2 CLR
17:49 -4.2 °C -8.8 °C 34726.8 hPa NE 23.8 km/h 23.8 km/h 60 % 0 mm 197.0 W/m2 CLR
17:54 -4.2 °C -8.8 °C 34740.4 hPa NNE 29.8 km/h 29.8 km/h 60 % 0 mm 181.0 W/m2 CLR
17:59 -4.5 °C -8.8 °C 34740.4 hPa ENE 26.9 km/h 26.9 km/h 62 % 0 mm 162.0 W/m2 CLR
18:04 -4.5 °C -8.8 °C 34740.4 hPa NNE 23.8 km/h 23.8 km/h 62 % 0 mm 148.0 W/m2 CLR
18:09 -4.5 °C -8.8 °C 34740.4 hPa NNE 29.8 km/h 29.8 km/h 62 % 0 mm 132.0 W/m2 CLR
18:14 -4.5 °C -8.7 °C 34740.4 hPa NE 29.8 km/h 29.8 km/h 63 % 0 mm 118.0 W/m2 CLR
18:19 -4.8 °C -8.8 °C 34740.4 hPa NNE 29.8 km/h 29.8 km/h 64 % 0 mm 102.0 W/m2 CLR
18:24 -4.8 °C -8.8 °C 34740.4 hPa NNE 26.9 km/h 26.9 km/h 64 % 0 mm 86.0 W/m2 CLR
18:29 -4.8 °C -8.8 °C 34740.4 hPa NNE 29.8 km/h 29.8 km/h 64 % 0 mm 74.0 W/m2 FEW
18:34 -4.8 °C -8.8 °C 34740.4 hPa ENE 29.8 km/h 29.8 km/h 64 % 0 mm 62.0 W/m2 SCT
18:39 -5.1 °C -9 °C 34740.4 hPa ENE 18.2 km/h 18.2 km/h 65 % 0 mm 51.0 W/m2 SCT
18:44 -5.1 °C -9 °C 34740.4 hPa NE 26.9 km/h 26.9 km/h 65 % 0 mm 39.0 W/m2 BKN
18:49 -5.4 °C -9.3 °C 34740.4 hPa NE 23.8 km/h 23.8 km/h 65 % 0 mm 30.0 W/m2 BKN
18:54 -5.4 °C -9.3 °C 34740.4 hPa NE 23.3 km/h 23.3 km/h 65 % 0 mm 23.0 W/m2 BKN
18:59 -5.7 °C -9.7 °C 34740.4 hPa NE 29.8 km/h 29.8 km/h 64 % 0 mm 18.0 W/m2 BKN
19:04 -5.7 °C -9.8 °C 34740.4 hPa NNE 29.8 km/h 29.8 km/h 63 % 0 mm 14.0 W/m2 BKN
19:09 -5.7 °C -9.8 °C 34750.5 hPa NE 26.9 km/h 26.9 km/h 63 % 0 mm 11.0 W/m2 BKN
19:14 -6.1 °C -9.9 °C 34750.5 hPa NE 23.8 km/h 23.8 km/h 64 % 0 mm 7.0 W/m2 BKN
19:19 -6.1 °C -9.9 °C 34750.5 hPa ENE 15 km/h 15 km/h 64 % 0 mm 0.0 W/m2 OVC
19:24 -6.3 °C -10.3 °C 34750.5 hPa ENE 15 km/h 15 km/h 64 % 0 mm 0.0 W/m2 OVC
19:29 -6.7 °C -10.4 °C 34750.5 hPa ENE 2.6 km/h 2.9 km/h 65 % 0 mm 0.0 W/m2 OVC
19:31 -6.7 °C -10.4 °C 34750.5 hPa NE 15 km/h 15 km/h 65 % 0 mm 0.0 W/m2 CLR
19:36 -6.7 °C -10.4 °C 34750.5 hPa ENE 11.9 km/h 11.9 km/h 65 % 0 mm 0.0 W/m2 CLR
19:41 -7 °C -10.6 °C 34750.5 hPa NE 15 km/h 15 km/h 66 % 0 mm 0.0 W/m2 CLR
19:46 -7.3 °C -10.8 °C 34750.5 hPa NE 17.9 km/h 17.9 km/h 67 % 0 mm 0.0 W/m2 CLR
19:51 -7.3 °C -10.8 °C 34750.5 hPa North 9 km/h   67 % 0 mm 0.0 W/m2 CLR
19:56 -7.6 °C -11.1 °C 34750.5 hPa Calm     67 % 0 mm 0.0 W/m2 CLR
20:01 -7.6 °C -10.9 °C 34760.7 hPa Calm     68 % 0 mm 0.0 W/m2 CLR
20:06 -7.9 °C -11.2 °C 34760.7 hPa Calm     68 % 0 mm 0.0 W/m2 CLR
20:11 -8.2 °C -11.4 °C 34760.7 hPa Calm     69 % 0 mm 0.0 W/m2 CLR
20:16 -8.2 °C -11.3 °C 34760.7 hPa Calm     70 % 0 mm 0.0 W/m2 CLR
20:21 -8.5 °C -11.4 °C 34760.7 hPa Calm     71 % 0 mm 0.0 W/m2 CLR
20:26 -8.5 °C -11.4 °C 34760.7 hPa Calm     71 % 0 mm 0.0 W/m2 CLR
20:31 -8.8 °C -11.6 °C 34774.2 hPa Calm     72 % 0 mm 0.0 W/m2 CLR
20:36 -8.8 °C -11.6 °C 34774.2 hPa Calm     72 % 0 mm 0.0 W/m2 CLR
20:41 -8.8 °C -11.6 °C 34774.2 hPa Calm     72 % 0 mm 0.0 W/m2 CLR
20:46 -8.8 °C -11.6 °C 34774.2 hPa Calm     72 % 0 mm 0.0 W/m2 CLR
20:51 -9.1 °C -11.8 °C 34774.2 hPa Calm     73 % 0 mm 0.0 W/m2 CLR
20:56 -9.1 °C -11.8 °C 34774.2 hPa Calm     73 % 0 mm 0.0 W/m2 CLR
21:01 -9.4 °C -12.1 °C 34774.2 hPa Calm     73 % 0 mm 0.0 W/m2 CLR
21:06 -9.4 °C -12.1 °C 34774.2 hPa Calm     73 % 0 mm 0.0 W/m2 CLR
21:07 -9.4 °C -12.1 °C 34774.2 hPa Calm     73 % 0 mm 0.0 W/m2 CLR
21:12 -9.4 °C -12.1 °C 34774.2 hPa Calm     73 % 0 mm 0.0 W/m2 CLR
21:17 -9.8 °C -12.4 °C 34774.2 hPa Calm     73 % 0 mm 0.0 W/m2 CLR
21:22 -9.8 °C -12.3 °C 34774.2 hPa Calm     74 % 0 mm 0.0 W/m2 CLR
21:27 -9.8 °C -12.3 °C 34774.2 hPa Calm     74 % 0 mm 0.0 W/m2 CLR
21:32 -9.8 °C -12.3 °C 34774.2 hPa Calm     74 % 0 mm 0.0 W/m2 CLR
21:37 -10.1 °C -12.6 °C 34784.4 hPa East 11.9 km/h 11.9 km/h 74 % 0 mm 0.0 W/m2 CLR
21:42 -10.1 °C -12.6 °C 34784.4 hPa Calm     74 % 0 mm 0.0 W/m2 CLR
21:47 -10.1 °C -12.4 °C 34784.4 hPa Calm     75 % 0 mm 0.0 W/m2 CLR
21:52 -10.4 °C -12.8 °C 34784.4 hPa Calm     75 % 0 mm 0.0 W/m2 CLR
22:02 -10.4 °C -12.8 °C 34784.4 hPa ENE 3.1 km/h   75 % 0 mm 0.0 W/m2 CLR
22:07 -10.4 °C -12.7 °C 34784.4 hPa Calm     76 % 0 mm 0.0 W/m2 CLR
22:12 -10.7 °C -12.9 °C 34784.4 hPa Calm     76 % 0 mm 0.0 W/m2 CLR
22:17 -10.7 °C -12.9 °C 34784.4 hPa Calm     76 % 0 mm 0.0 W/m2 CLR
22:22 -10.7 °C -12.9 °C 34784.4 hPa Calm     76 % 0 mm 0.0 W/m2 CLR
22:27 -10.7 °C -12.9 °C 34797.9 hPa Calm     77 % 0 mm 0.0 W/m2 CLR
22:32 -10.7 °C -12.7 °C 34797.9 hPa Calm     78 % 0 mm 0.0 W/m2 CLR
22:37 -11 °C -13.1 °C 34797.9 hPa Calm     78 % 0 mm 0.0 W/m2 CLR
22:42 -11 °C -12.9 °C 34797.9 hPa Calm     79 % 0 mm 0.0 W/m2 CLR
22:47 -11 °C -12.9 °C 34784.4 hPa Calm     79 % 0 mm 0.0 W/m2 CLR
22:52 -11 °C -12.9 °C 34797.9 hPa Calm     79 % 0 mm 0.0 W/m2 CLR
22:57 -11 °C -12.8 °C 34797.9 hPa Calm     80 % 0 mm 0.0 W/m2 CLR
23:02 -11.3 °C -13.2 °C 34797.9 hPa Calm     80 % 0 mm 0.0 W/m2 CLR
23:07 -11.3 °C -13.2 °C 34797.9 hPa Calm     80 % 0 mm 0.0 W/m2 CLR
23:12 -11.3 °C -13.1 °C 34797.9 hPa Calm     81 % 0 mm 0.0 W/m2 CLR
23:17 -11.3 °C -13.2 °C 34797.9 hPa Calm     80 % 0 mm 0.0 W/m2 CLR
23:22 -11.3 °C -13.2 °C 34797.9 hPa Calm     80 % 0 mm 0.0 W/m2 CLR
23:27 -11.3 °C -13.2 °C 34797.9 hPa Calm     80 % 0 mm 0.0 W/m2 CLR
23:32 -11.3 °C -13.1 °C 34797.9 hPa Calm     81 % 0 mm 0.0 W/m2 CLR
23:37 -11.3 °C -12.9 °C 34797.9 hPa Calm     82 % 0 mm 0.0 W/m2 CLR
23:42 -11.3 °C -12.9 °C 34797.9 hPa Calm     82 % 0 mm 0.0 W/m2 CLR
23:47 -11.3 °C -13.1 °C 34797.9 hPa Calm     81 % 0 mm 0.0 W/m2 CLR
23:52 -11.3 °C -13.1 °C 34797.9 hPa Calm     81 % 0 mm 0.0 W/m2 CLR
23:57 -11.3 °C -12.9 °C 34808.1 hPa Calm     82 % 0 mm 0.0 W/m2 CLR
Lo Temps de Massalio
Compliments of Weather Underground - 1.25 mb